createdAt,value
2019-03-25T00:00:46.241Z,13.77
2019-03-25T00:03:19.498Z,13.63
2019-03-25T00:05:48.086Z,13.63
2019-03-25T00:08:16.656Z,13.90
2019-03-25T00:10:45.691Z,15.53
2019-03-25T00:13:14.344Z,16.50
2019-03-25T00:15:43.206Z,20.33
2019-03-25T00:18:11.776Z,20.70
2019-03-25T00:20:40.371Z,22.20
2019-03-25T00:23:08.931Z,24.17
2019-03-25T00:25:37.993Z,25.63
2019-03-25T00:28:07.191Z,25.00
2019-03-25T00:30:35.744Z,24.20
2019-03-25T00:33:09.526Z,24.47
2019-03-25T00:35:38.046Z,24.53
2019-03-25T00:38:14.723Z,23.93
2019-03-25T00:40:45.546Z,23.33
2019-03-25T00:43:16.358Z,27.93
2019-03-25T00:45:44.636Z,29.30
2019-03-25T00:48:13.195Z,30.93
2019-03-25T00:50:41.776Z,32.13
2019-03-25T00:53:11.374Z,31.83
2019-03-25T00:55:39.936Z,33.00
2019-03-25T00:58:08.506Z,30.80
2019-03-25T01:00:41.552Z,31.43
2019-03-25T01:03:08.950Z,32.70
2019-03-25T01:05:38.912Z,30.83
2019-03-25T01:08:13.284Z,31.57
2019-03-25T01:10:41.886Z,32.47
2019-03-25T01:13:12.239Z,33.43
2019-03-25T01:15:41.932Z,32.20
2019-03-25T01:18:16.926Z,33.57
2019-03-25T01:20:41.774Z,36.17
2019-03-25T01:23:10.341Z,38.47
2019-03-25T01:25:38.926Z,39.47
2019-03-25T01:28:07.574Z,40.70
2019-03-25T01:30:55.568Z,41.37
2019-03-25T01:33:24.178Z,40.43
2019-03-25T01:35:52.765Z,38.57
2019-03-25T01:38:21.380Z,37.63
2019-03-25T01:40:49.958Z,38.60
2019-03-25T01:43:20.719Z,39.10
2019-03-25T01:49:21.162Z,39.43
2019-03-25T01:51:51.271Z,37.23
2019-03-25T01:54:19.954Z,38.00
2019-03-25T01:56:48.514Z,35.20
2019-03-25T01:59:17.133Z,36.13
2019-03-25T02:01:45.710Z,31.70
2019-03-25T02:04:14.278Z,30.10
2019-03-25T02:06:44.435Z,28.67
2019-03-25T02:09:16.202Z,27.47
2019-03-25T02:11:45.429Z,26.93
2019-03-25T02:14:13.995Z,23.93
2019-03-25T02:16:42.661Z,26.97
2019-03-25T02:19:13.653Z,26.30
2019-03-25T02:21:42.141Z,27.87
2019-03-25T02:24:11.048Z,24.20
2019-03-25T02:26:45.269Z,22.77
2019-03-25T02:29:13.832Z,22.53
2019-03-25T02:31:44.201Z,19.53
2019-03-25T02:34:14.078Z,17.07
2019-03-25T02:36:42.667Z,18.40
2019-03-25T02:39:20.327Z,19.17
2019-03-25T02:41:50.474Z,17.57
2019-03-25T02:44:22.117Z,17.37
2019-03-25T02:46:50.620Z,18.53
2019-03-25T02:49:20.771Z,19.97
2019-03-25T02:51:52.036Z,20.03
2019-03-25T02:54:21.951Z,21.10
2019-03-25T02:56:50.511Z,19.13
2019-03-25T02:59:19.094Z,19.47
2019-03-25T03:01:47.636Z,19.67
2019-03-25T03:04:19.148Z,19.77
2019-03-25T03:06:47.703Z,20.23
2019-03-25T03:09:16.277Z,18.67
2019-03-25T03:11:44.841Z,15.00
2019-03-25T03:14:15.383Z,17.57
2019-03-25T03:16:43.748Z,16.13
2019-03-25T03:19:14.822Z,15.20
2019-03-25T03:21:53.360Z,14.67
2019-03-25T03:24:27.136Z,13.97
2019-03-25T03:26:58.212Z,13.47
2019-03-25T03:29:28.637Z,14.90
2019-03-25T03:32:02.958Z,13.60
2019-03-25T03:34:33.379Z,13.37
2019-03-25T03:37:04.923Z,14.70
2019-03-25T03:39:35.534Z,12.90
2019-03-25T03:42:06.193Z,13.53
2019-03-25T03:44:36.460Z,13.27
2019-03-25T03:47:10.286Z,13.60
2019-03-25T03:49:44.219Z,14.20
2019-03-25T03:52:29.917Z,13.97
2019-03-25T03:55:00.461Z,15.07
2019-03-25T03:57:29.432Z,15.03
2019-03-25T03:59:59.713Z,13.53
2019-03-25T04:02:35.407Z,14.37
2019-03-25T04:05:05.557Z,14.60
2019-03-25T04:07:34.183Z,14.00
2019-03-25T04:10:02.831Z,14.17
2019-03-25T04:12:31.398Z,14.20
2019-03-25T04:15:01.221Z,14.70
2019-03-25T04:17:37.555Z,14.50
2019-03-25T04:20:08.154Z,15.17
2019-03-25T04:22:38.703Z,14.53
2019-03-25T04:25:44.456Z,14.37
2019-03-25T04:28:15.162Z,14.20
2019-03-25T04:30:46.477Z,12.67
2019-03-25T04:33:15.910Z,13.83
2019-03-25T04:35:51.175Z,13.10
2019-03-25T04:38:28.474Z,13.47
2019-03-25T04:41:01.260Z,14.10
2019-03-25T04:43:30.176Z,13.60
2019-03-25T04:46:03.175Z,13.90
2019-03-25T04:48:34.604Z,13.87
2019-03-25T04:51:06.583Z,13.73
2019-03-25T04:53:37.732Z,13.83
2019-03-25T04:56:06.289Z,13.60
2019-03-25T04:58:35.890Z,14.07
2019-03-25T05:01:04.610Z,13.97
2019-03-25T05:03:33.175Z,13.30
2019-03-25T05:06:02.394Z,13.40
2019-03-25T05:08:30.952Z,13.63
2019-03-25T05:10:59.510Z,13.90
2019-03-25T05:13:31.207Z,13.67
2019-03-25T05:16:03.032Z,13.23
2019-03-25T05:18:31.869Z,13.20
2019-03-25T05:21:00.401Z,13.80
2019-03-25T05:23:29.280Z,14.00
2019-03-25T05:26:00.972Z,13.60
2019-03-25T05:28:34.699Z,13.53
2019-03-25T05:31:13.839Z,14.03
2019-03-25T05:33:45.709Z,14.00
2019-03-25T05:36:15.838Z,13.33
2019-03-25T05:38:51.680Z,15.20
2019-03-25T05:41:25.709Z,14.23
2019-03-25T05:43:56.542Z,13.10
2019-03-25T05:46:30.407Z,13.07
2019-03-25T05:48:58.972Z,13.47
2019-03-25T05:51:37.356Z,13.40
2019-03-25T05:54:08.616Z,13.17
2019-03-25T05:56:43.414Z,12.87
2019-03-25T05:59:22.936Z,13.90
2019-03-25T06:02:05.176Z,13.20
2019-03-25T06:04:36.349Z,12.10
2019-03-25T06:07:07.312Z,13.00
2019-03-25T06:09:35.854Z,11.70
2019-03-25T06:12:04.412Z,12.13
2019-03-25T06:14:36.912Z,11.90
2019-03-25T06:17:09.062Z,11.70
2019-03-25T06:19:39.538Z,13.10
2019-03-25T06:22:22.901Z,13.20
2019-03-25T06:24:57.113Z,12.93
2019-03-25T06:27:25.842Z,13.67
2019-03-25T06:29:54.447Z,11.73
2019-03-25T06:32:22.998Z,12.90
2019-03-25T06:34:51.592Z,11.53
2019-03-25T06:37:21.582Z,11.20
2019-03-25T06:39:50.954Z,10.87
2019-03-25T06:42:21.210Z,10.53
2019-03-25T06:44:50.590Z,10.60
2019-03-25T06:47:22.692Z,9.50
2019-03-25T06:49:52.678Z,10.60
2019-03-25T06:52:22.452Z,10.20
2019-03-25T06:54:53.753Z,9.77
2019-03-25T06:57:26.746Z,9.50
2019-03-25T07:00:00.912Z,8.97
2019-03-25T07:02:34.850Z,8.20
2019-03-25T07:05:04.994Z,8.70
2019-03-25T07:07:35.166Z,7.37
2019-03-25T07:10:07.587Z,7.17
2019-03-25T07:12:38.200Z,6.97
2019-03-25T07:15:11.800Z,6.30
2019-03-25T07:17:47.149Z,6.60
2019-03-25T07:20:17.680Z,5.70
2019-03-25T07:22:47.191Z,5.93
2019-03-25T07:25:17.565Z,5.53
2019-03-25T07:27:49.480Z,6.63
2019-03-25T07:30:19.617Z,6.87
2019-03-25T07:32:49.710Z,6.73
2019-03-25T07:35:22.343Z,5.67
2019-03-25T07:37:55.063Z,6.33
2019-03-25T07:40:25.640Z,6.53
2019-03-25T07:42:57.242Z,7.97
2019-03-25T07:45:27.601Z,7.73
2019-03-25T07:48:00.332Z,7.00
2019-03-25T07:50:34.445Z,5.20
2019-03-25T07:53:03.055Z,7.40
2019-03-25T07:55:31.674Z,6.47
2019-03-25T07:58:02.451Z,7.00
2019-03-25T08:00:33.121Z,7.67
2019-03-25T08:03:01.678Z,7.03
2019-03-25T08:05:30.282Z,6.53
2019-03-25T08:08:02.326Z,7.07
2019-03-25T08:10:35.041Z,6.80
2019-03-25T08:13:11.532Z,6.63
2019-03-25T08:15:39.743Z,6.67
2019-03-25T08:18:09.811Z,6.80
2019-03-25T08:20:42.965Z,6.97
2019-03-25T08:23:13.799Z,7.10
2019-03-25T08:25:45.850Z,6.80
2019-03-25T08:28:14.494Z,7.23
2019-03-25T08:30:44.607Z,7.57
2019-03-25T08:33:13.707Z,6.73
2019-03-25T08:35:45.371Z,6.53
2019-03-25T08:38:17.173Z,7.87
2019-03-25T08:40:46.283Z,9.13
2019-03-25T08:43:18.403Z,9.00
2019-03-25T08:45:53.624Z,8.97
2019-03-25T08:48:30.873Z,9.10
2019-03-25T08:51:09.119Z,8.63
2019-03-25T08:53:48.333Z,8.80
2019-03-25T08:56:15.791Z,10.03
2019-03-25T08:58:47.377Z,8.83
2019-03-25T09:01:31.524Z,8.73
2019-03-25T09:03:48.517Z,8.10
2019-03-25T09:06:30.763Z,7.93
2019-03-25T09:09:08.381Z,7.50
2019-03-25T09:11:36.830Z,6.97
2019-03-25T09:14:12.985Z,6.70
2019-03-25T09:16:54.979Z,7.13
2019-03-25T09:19:26.084Z,6.50
2019-03-25T09:22:02.225Z,6.40
2019-03-25T09:24:35.261Z,6.30
2019-03-25T09:27:09.491Z,6.93
2019-03-25T09:29:42.947Z,6.17
2019-03-25T09:32:16.435Z,6.23
2019-03-25T09:34:54.107Z,5.50
2019-03-25T09:37:26.035Z,6.23
2019-03-25T09:40:14.557Z,5.30
2019-03-25T09:42:49.501Z,5.23
2019-03-25T09:45:24.513Z,4.90
2019-03-25T09:47:53.965Z,5.07
2019-03-25T09:50:29.355Z,5.07
2019-03-25T09:52:58.371Z,4.73
2019-03-25T09:55:28.220Z,4.57
2019-03-25T09:57:59.409Z,4.17
2019-03-25T10:00:33.579Z,4.23
2019-03-25T10:03:08.100Z,4.47
2019-03-25T10:05:39.776Z,4.67
2019-03-25T10:08:08.977Z,4.13
2019-03-25T10:10:40.403Z,3.90
2019-03-25T10:13:18.457Z,4.47
2019-03-25T10:15:49.047Z,4.10
2019-03-25T10:18:21.016Z,3.90
2019-03-25T10:20:55.143Z,4.00
2019-03-25T10:23:28.407Z,4.07
2019-03-25T10:25:56.671Z,4.13
2019-03-25T10:28:26.435Z,4.20
2019-03-25T10:30:54.972Z,3.90
2019-03-25T10:33:25.236Z,3.80
2019-03-25T10:35:55.322Z,4.10
2019-03-25T10:38:26.074Z,3.67
2019-03-25T10:40:57.034Z,4.40
2019-03-25T10:43:29.256Z,4.43
2019-03-25T10:45:57.813Z,4.27
2019-03-25T10:48:26.416Z,4.40
2019-03-25T10:50:55.054Z,4.60
2019-03-25T10:53:34.023Z,4.63
2019-03-25T10:56:00.235Z,4.27
2019-03-25T10:58:32.289Z,4.47
2019-03-25T11:01:04.082Z,4.47
2019-03-25T11:03:34.657Z,4.10
2019-03-25T11:06:03.259Z,3.90
2019-03-25T11:08:34.415Z,4.47
2019-03-25T11:11:03.594Z,4.30
2019-03-25T11:13:35.151Z,4.10
2019-03-25T11:16:05.247Z,4.23
2019-03-25T11:18:33.884Z,4.47
2019-03-25T11:21:03.679Z,4.20
2019-03-25T11:23:38.729Z,4.20
2019-03-25T11:26:08.653Z,4.60
2019-03-25T11:28:39.096Z,4.78
2019-03-25T11:31:07.733Z,4.60
2019-03-25T11:33:36.907Z,4.33
2019-03-25T11:36:06.106Z,3.93
2019-03-25T11:38:34.735Z,5.23
2019-03-25T11:41:03.379Z,4.80
2019-03-25T11:43:32.016Z,5.00
2019-03-25T11:46:05.073Z,4.47
2019-03-25T11:48:33.884Z,4.97
2019-03-25T11:51:02.449Z,5.10
2019-03-25T11:53:34.366Z,5.50
2019-03-25T11:56:02.662Z,5.20
2019-03-25T11:58:31.217Z,5.20
2019-03-25T12:00:59.819Z,5.83
2019-03-25T12:03:29.953Z,5.70
2019-03-25T12:05:58.583Z,5.53
2019-03-25T12:08:27.217Z,7.27
2019-03-25T12:10:55.883Z,5.47
2019-03-25T12:13:24.444Z,5.37
2019-03-25T12:15:53.167Z,5.20
2019-03-25T12:18:21.755Z,6.00
2019-03-25T12:20:50.303Z,5.43
2019-03-25T12:23:25.916Z,5.83
2019-03-25T12:25:49.162Z,6.17
2019-03-25T12:28:19.575Z,5.83
2019-03-25T12:30:48.055Z,6.37
2019-03-25T12:33:16.619Z,5.83
2019-03-25T12:35:45.199Z,6.27
2019-03-25T12:38:13.755Z,6.07
2019-03-25T12:40:42.395Z,5.57
2019-03-25T12:43:10.978Z,5.77
2019-03-25T12:45:39.638Z,5.50
2019-03-25T12:48:09.687Z,6.90
2019-03-25T12:50:38.987Z,5.97
2019-03-25T12:53:07.640Z,5.93
2019-03-25T12:55:36.282Z,5.73
2019-03-25T12:58:07.274Z,6.33
2019-03-25T13:00:40.756Z,5.67
2019-03-25T13:03:12.279Z,5.50
2019-03-25T13:05:40.927Z,6.40
2019-03-25T13:08:09.567Z,5.70
2019-03-25T13:10:39.533Z,6.53
2019-03-25T13:13:08.587Z,6.43
2019-03-25T13:15:39.374Z,6.83
2019-03-25T13:18:07.968Z,6.20
2019-03-25T13:20:36.588Z,7.00
2019-03-25T13:23:23.474Z,7.07
2019-03-25T13:25:43.167Z,6.60
2019-03-25T13:28:11.789Z,7.30
2019-03-25T13:30:40.446Z,7.27
2019-03-25T13:33:11.413Z,7.53
2019-03-25T13:35:40.051Z,6.70
2019-03-25T13:38:08.698Z,6.90
2019-03-25T13:40:38.802Z,6.60
2019-03-25T13:43:09.965Z,6.77
2019-03-25T13:45:40.871Z,6.57
2019-03-25T13:48:13.256Z,5.60
2019-03-25T13:50:46.942Z,6.40
2019-03-25T13:53:16.257Z,6.70
2019-03-25T13:55:46.628Z,6.50
2019-03-25T13:58:23.889Z,6.40
2019-03-25T14:00:54.152Z,6.67
2019-03-25T14:03:25.927Z,6.93
2019-03-25T14:05:54.486Z,7.07
2019-03-25T14:08:24.815Z,6.40
2019-03-25T14:10:53.461Z,6.60
2019-03-25T14:13:26.364Z,6.87
2019-03-25T14:15:59.080Z,6.23
2019-03-25T14:18:27.691Z,6.27
2019-03-25T14:20:56.932Z,6.60
2019-03-25T14:23:30.644Z,6.77
2019-03-25T14:26:00.524Z,6.90
2019-03-25T14:28:31.090Z,7.47
2019-03-25T14:31:01.121Z,6.90
2019-03-25T14:33:36.424Z,8.30
2019-03-25T14:36:10.729Z,8.03
2019-03-25T14:38:43.774Z,8.40
2019-03-25T14:41:15.679Z,9.57
2019-03-25T14:43:44.824Z,10.80
2019-03-25T14:46:15.410Z,12.00
2019-03-25T14:48:46.558Z,11.53
2019-03-25T14:51:19.179Z,12.23
2019-03-25T14:53:51.029Z,11.50
2019-03-25T14:56:23.332Z,13.13
2019-03-25T14:58:54.868Z,14.27
2019-03-25T15:01:24.002Z,14.80
2019-03-25T15:03:55.884Z,15.03
2019-03-25T15:06:24.640Z,16.50
2019-03-25T15:08:56.084Z,17.30
2019-03-25T15:11:26.204Z,16.57
2019-03-25T15:13:57.456Z,15.67
2019-03-25T15:16:29.249Z,16.23
2019-03-25T15:19:00.181Z,16.40
2019-03-25T15:21:35.942Z,16.40
2019-03-25T15:24:03.444Z,14.97
2019-03-25T15:26:39.277Z,14.63
2019-03-25T15:29:12.245Z,14.10
2019-03-25T15:31:43.813Z,14.80
2019-03-25T15:34:14.523Z,14.43
2019-03-25T15:36:52.120Z,14.87
2019-03-25T15:39:19.278Z,14.07
2019-03-25T15:41:55.244Z,15.07
2019-03-25T15:50:47.321Z,13.90
2019-03-25T15:59:14.335Z,13.03
2019-03-25T16:02:22.669Z,12.70
2019-03-25T16:04:54.317Z,12.93
2019-03-25T16:07:25.735Z,12.63
2019-03-25T16:10:03.628Z,13.13
2019-03-25T16:12:32.395Z,14.40
2019-03-25T16:15:07.172Z,12.63
2019-03-25T16:17:43.338Z,13.37
2019-03-25T16:23:11.200Z,12.20
2019-03-25T16:25:41.873Z,12.73
2019-03-25T16:28:12.429Z,11.93
2019-03-25T16:30:45.887Z,11.93
2019-03-25T16:33:16.631Z,11.03
2019-03-25T16:38:41.884Z,10.83
2019-03-25T16:44:05.078Z,9.87
2019-03-25T16:46:42.712Z,9.67
2019-03-25T16:49:22.094Z,9.10
2019-03-25T16:51:56.705Z,10.63
2019-03-25T16:54:36.529Z,9.17
2019-03-25T16:57:08.459Z,10.30
2019-03-25T16:59:41.738Z,10.50
2019-03-25T17:09:31.411Z,10.70
2019-03-25T17:12:16.811Z,10.80
2019-03-25T17:14:53.687Z,11.90
2019-03-25T17:18:00.904Z,11.13
2019-03-25T17:20:38.418Z,11.33
2019-03-25T17:23:08.895Z,11.17
2019-03-25T17:25:56.369Z,10.80
2019-03-25T17:28:27.416Z,11.30
2019-03-25T17:30:56.187Z,10.23
2019-03-25T17:33:24.883Z,11.27
2019-03-25T17:35:55.014Z,10.00
2019-03-25T17:38:27.959Z,10.00
2019-03-25T17:40:57.930Z,10.47
2019-03-25T17:43:26.614Z,10.23
2019-03-25T17:45:55.250Z,11.50
2019-03-25T17:48:30.755Z,10.47
2019-03-25T17:51:02.029Z,10.80
2019-03-25T17:53:31.147Z,10.57
2019-03-25T17:56:03.176Z,12.10
2019-03-25T17:58:35.029Z,11.00
2019-03-25T18:01:10.108Z,13.25
2019-03-25T18:03:38.689Z,13.80
2019-03-25T18:06:08.432Z,34.10
2019-03-25T18:08:36.979Z,22.53
2019-03-25T18:11:08.796Z,14.43
2019-03-25T18:13:37.659Z,11.33
2019-03-25T18:16:13.007Z,7.27
2019-03-25T18:18:52.079Z,7.83
2019-03-25T18:21:22.165Z,6.90
2019-03-25T18:23:54.888Z,6.30
2019-03-25T18:26:23.823Z,6.80
2019-03-25T18:28:55.693Z,6.70
2019-03-25T18:31:26.471Z,7.10
2019-03-25T18:33:56.074Z,7.50
2019-03-25T18:36:24.641Z,8.03
2019-03-25T18:38:53.302Z,7.77
2019-03-25T18:41:25.469Z,7.77
2019-03-25T18:43:59.936Z,8.83
2019-03-25T18:46:28.896Z,8.37
2019-03-25T18:49:10.461Z,9.70
2019-03-25T18:51:48.006Z,9.97
2019-03-25T18:54:14.244Z,10.67
2019-03-25T18:56:47.637Z,11.70
2019-03-25T18:59:17.173Z,13.97
2019-03-25T19:01:54.491Z,13.27
2019-03-25T19:07:20.866Z,13.40
2019-03-25T19:09:51.281Z,13.50
2019-03-25T19:12:28.526Z,13.47
2019-03-25T19:15:10.550Z,13.10
2019-03-25T19:17:39.560Z,15.27
2019-03-25T19:20:10.276Z,16.33
2019-03-25T19:22:40.691Z,15.80
2019-03-25T19:25:11.002Z,17.00
2019-03-25T19:27:43.765Z,18.63
2019-03-25T19:30:16.866Z,17.30
2019-03-25T19:32:56.697Z,18.73
2019-03-25T19:35:34.072Z,20.17
2019-03-25T19:38:13.962Z,20.43
2019-03-25T19:40:48.661Z,20.63
2019-03-25T19:43:28.129Z,21.17
2019-03-25T19:46:07.476Z,20.97
2019-03-25T19:48:39.947Z,21.80
2019-03-25T19:51:09.090Z,22.43
2019-03-25T19:53:42.202Z,21.13
2019-03-25T19:56:19.622Z,21.77
2019-03-25T19:58:48.238Z,22.50
2019-03-25T20:01:35.613Z,23.37
2019-03-25T20:04:04.266Z,23.30
2019-03-25T20:06:33.040Z,24.97
2019-03-25T20:09:01.738Z,23.37
2019-03-25T20:11:30.322Z,23.67
2019-03-25T20:13:58.898Z,24.90
2019-03-25T20:16:27.599Z,24.80
2019-03-25T20:18:57.265Z,25.10
2019-03-25T20:21:25.901Z,22.37
2019-03-25T20:23:54.557Z,24.87
2019-03-25T20:26:24.005Z,23.83
2019-03-25T20:28:52.694Z,23.87
2019-03-25T20:31:21.643Z,22.70
2019-03-25T20:33:50.264Z,23.03
2019-03-25T20:36:18.930Z,18.87
2019-03-25T20:38:49.259Z,17.07
2019-03-25T20:41:17.909Z,16.47
2019-03-25T20:43:46.934Z,17.37
2019-03-25T20:46:15.533Z,14.73
2019-03-25T20:48:44.086Z,15.70
2019-03-25T20:51:12.640Z,14.20
2019-03-25T20:53:41.300Z,14.03
2019-03-25T20:56:09.889Z,14.33
2019-03-25T20:58:38.479Z,14.33
2019-03-25T21:01:07.144Z,13.13
2019-03-25T21:03:35.776Z,13.83
2019-03-25T21:06:04.434Z,13.23
2019-03-25T21:08:33.002Z,14.73
2019-03-25T21:11:01.581Z,14.03
2019-03-25T21:13:30.201Z,14.53
2019-03-25T21:15:58.805Z,15.27
2019-03-25T21:18:27.435Z,16.27
2019-03-25T21:20:56.278Z,16.20
2019-03-25T21:23:24.807Z,18.47
2019-03-25T21:25:53.521Z,17.53
2019-03-25T21:28:22.325Z,18.77
2019-03-25T21:30:51.551Z,18.20
2019-03-25T21:33:20.165Z,19.43
2019-03-25T21:35:48.788Z,22.97
2019-03-25T21:38:17.354Z,23.93
2019-03-25T21:40:46.021Z,24.77
2019-03-25T21:43:14.696Z,24.43
2019-03-25T21:45:43.211Z,24.97
2019-03-25T21:48:11.830Z,25.40
2019-03-25T21:50:40.389Z,24.77
2019-03-25T21:53:08.978Z,24.03
2019-03-25T21:55:37.537Z,24.67
2019-03-25T21:58:06.181Z,23.40
2019-03-25T22:00:34.916Z,25.60
2019-03-25T22:03:11.371Z,26.80
2019-03-25T22:05:35.092Z,25.90
2019-03-25T22:08:03.781Z,27.03
2019-03-25T22:10:32.427Z,28.33
2019-03-25T22:13:01.020Z,28.07
2019-03-25T22:15:29.580Z,26.03
2019-03-25T22:17:58.170Z,26.13
2019-03-25T22:20:26.730Z,25.07
2019-03-25T22:22:55.295Z,25.77
2019-03-25T22:25:27.870Z,25.53
2019-03-25T22:28:00.544Z,25.40
2019-03-25T22:30:34.727Z,25.93
2019-03-25T22:33:02.994Z,25.90
2019-03-25T22:35:31.600Z,26.37
2019-03-25T22:38:00.156Z,25.07
2019-03-25T22:40:28.719Z,25.23
2019-03-25T22:42:57.307Z,23.97
2019-03-25T22:45:28.178Z,23.27
2019-03-25T22:47:56.731Z,24.17
2019-03-25T22:50:29.756Z,24.57
2019-03-25T22:52:58.306Z,24.20
2019-03-25T22:55:27.012Z,23.60
2019-03-25T22:57:55.558Z,23.67
2019-03-25T23:00:25.898Z,22.37
2019-03-25T23:02:54.561Z,22.03
2019-03-25T23:05:23.227Z,21.37
2019-03-25T23:07:51.780Z,22.60
2019-03-25T23:10:20.382Z,20.03
2019-03-25T23:12:48.947Z,19.97
2019-03-25T23:15:17.497Z,18.83
2019-03-25T23:17:46.131Z,18.90
2019-03-25T23:20:14.694Z,20.00
2019-03-25T23:22:43.279Z,19.73
2019-03-25T23:25:11.919Z,20.77
2019-03-25T23:27:40.489Z,21.13
2019-03-25T23:30:09.385Z,20.40
2019-03-25T23:32:38.019Z,18.87
2019-03-25T23:35:07.006Z,17.30
2019-03-25T23:37:35.562Z,18.27
2019-03-25T23:40:05.969Z,18.00
2019-03-25T23:42:34.598Z,17.83
2019-03-25T23:45:03.463Z,18.77
2019-03-25T23:47:32.174Z,17.53
2019-03-25T23:50:00.737Z,18.30
2019-03-25T23:52:29.322Z,17.57
2019-03-25T23:54:57.860Z,17.73
2019-03-25T23:57:26.403Z,17.53
2019-03-25T23:59:54.967Z,18.80
